createdAt,value
2022-08-07T00:01:12.536Z,102732.09
2022-08-07T00:06:33.093Z,102733.78
2022-08-07T00:11:47.866Z,102730.22
2022-08-07T00:16:59.624Z,102726.47
2022-08-07T00:22:03.453Z,102725.28
2022-08-07T00:27:09.284Z,102718.81
2022-08-07T00:32:14.367Z,102722.22
2022-08-07T00:37:17.372Z,102719.44
2022-08-07T00:42:29.046Z,102708.72
2022-08-07T00:48:07.593Z,102708.66
2022-08-07T00:52:55.662Z,102703.22
2022-08-07T00:58:00.009Z,102685.44
2022-08-07T01:03:03.156Z,102693.56
2022-08-07T01:08:06.726Z,102690.72
2022-08-07T01:13:16.528Z,102690.88
2022-08-07T01:18:20.924Z,102687.25
2022-08-07T01:23:36.426Z,102684.31
2022-08-07T01:28:45.978Z,102683.91
2022-08-07T01:33:56.310Z,102678.56
2022-08-07T01:39:09.788Z,102679.19
2022-08-07T01:44:16.404Z,102686.91
2022-08-07T01:49:22.197Z,102673.50
2022-08-07T01:54:36.438Z,102680.22
2022-08-07T01:59:51.085Z,102679.72
2022-08-07T02:04:58.203Z,102682.94
2022-08-07T02:10:08.040Z,102687.16
2022-08-07T02:15:22.581Z,102677.78
2022-08-07T02:20:28.171Z,102674.78
2022-08-07T02:26:30.800Z,102667.22
2022-08-07T02:31:10.133Z,102674.16
2022-08-07T02:36:29.456Z,102675.84
2022-08-07T02:41:50.773Z,102673.09
2022-08-07T02:46:59.688Z,102670.41
2022-08-07T02:52:13.013Z,102658.00
2022-08-07T02:57:21.747Z,102657.78
2022-08-07T03:02:26.255Z,102656.13
2022-08-07T03:07:43.099Z,102657.84
2022-08-07T03:12:57.121Z,102656.81
2022-08-07T03:18:03.545Z,102653.16
2022-08-07T03:23:14.413Z,102662.09
2022-08-07T03:28:37.260Z,102651.44
2022-08-07T03:33:43.664Z,102648.78
2022-08-07T03:38:48.985Z,102650.63
2022-08-07T03:43:57.326Z,102650.63
2022-08-07T03:49:06.082Z,102650.47
2022-08-07T03:54:36.436Z,102652.13
2022-08-07T03:59:46.904Z,102646.69
2022-08-07T04:05:08.654Z,102652.75
2022-08-07T04:10:15.749Z,102651.97
2022-08-07T04:15:25.499Z,102660.88
2022-08-07T04:20:30.712Z,102661.72
2022-08-07T04:25:39.527Z,102668.00
2022-08-07T04:30:57.060Z,102659.38
2022-08-07T04:36:09.802Z,102666.47
2022-08-07T04:41:19.055Z,102662.72
2022-08-07T04:46:35.973Z,102669.13
2022-08-07T04:52:04.332Z,102666.34
2022-08-07T04:58:12.100Z,102670.66
2022-08-07T05:02:49.849Z,102670.66
2022-08-07T05:07:59.491Z,102677.53
2022-08-07T05:14:44.839Z,102677.78
2022-08-07T05:18:36.873Z,102673.34
2022-08-07T05:23:46.587Z,102679.31
2022-08-07T05:28:52.242Z,102677.72
2022-08-07T05:34:05.464Z,102683.19
2022-08-07T05:40:14.377Z,102681.59
2022-08-07T05:44:52.714Z,102683.53
2022-08-07T05:50:08.837Z,102695.09
2022-08-07T05:55:12.916Z,102694.59
2022-08-07T06:00:21.881Z,102699.63
2022-08-07T06:05:35.497Z,102688.63
2022-08-07T06:10:47.181Z,102687.31
2022-08-07T06:16:00.582Z,102695.56
2022-08-07T06:22:15.936Z,102709.13
2022-08-07T06:26:32.494Z,102715.00
2022-08-07T06:31:47.218Z,102720.00
2022-08-07T06:36:57.401Z,102710.03
2022-08-07T06:42:10.285Z,102697.09
2022-08-07T06:47:57.521Z,102682.56
2022-08-07T06:53:18.595Z,102681.41
2022-08-07T06:58:33.904Z,102680.16
2022-08-07T07:03:48.148Z,102685.94
2022-08-07T07:08:54.885Z,102687.94
2022-08-07T07:14:02.392Z,102680.44
2022-08-07T07:19:54.849Z,102692.28
2022-08-07T07:24:34.581Z,102692.66
2022-08-07T07:30:09.430Z,102695.06
2022-08-07T07:35:06.145Z,102700.06
2022-08-07T07:40:16.604Z,102697.31
2022-08-07T07:45:22.751Z,102701.91
2022-08-07T07:50:48.736Z,102697.06
2022-08-07T07:56:00.806Z,102688.19
2022-08-07T08:02:02.430Z,102688.22
2022-08-07T08:06:29.925Z,102692.84
2022-08-07T08:12:00.092Z,102686.88
2022-08-07T08:17:55.600Z,102683.03
2022-08-07T08:22:55.680Z,102667.56
2022-08-07T08:28:06.063Z,102671.22
2022-08-07T08:33:16.853Z,102675.41
2022-08-07T08:38:29.232Z,102657.63
2022-08-07T08:43:42.970Z,102655.88
2022-08-07T08:49:08.206Z,102655.78
2022-08-07T08:54:25.024Z,102647.94
2022-08-07T08:59:42.196Z,102645.81
2022-08-07T09:04:59.163Z,102653.31
2022-08-07T09:10:11.805Z,102655.22
2022-08-07T09:16:24.533Z,102651.44
2022-08-07T09:21:13.545Z,102640.03
2022-08-07T09:26:40.723Z,102637.06
2022-08-07T09:32:00.490Z,102642.47
2022-08-07T09:37:10.924Z,102639.59
2022-08-07T09:42:33.269Z,102621.63
2022-08-07T09:47:59.632Z,102624.56
2022-08-07T09:53:12.622Z,102619.34
2022-08-07T09:58:32.467Z,102624.81
2022-08-07T10:04:14.314Z,102609.47
2022-08-07T10:10:01.036Z,102599.75
2022-08-07T10:15:19.876Z,102600.88
2022-08-07T10:20:34.146Z,102594.56
2022-08-07T10:25:58.773Z,102588.31
2022-08-07T10:31:17.823Z,102580.19
2022-08-07T10:36:36.263Z,102583.84
2022-08-07T10:41:46.968Z,102584.72
2022-08-07T10:47:11.829Z,102580.28
2022-08-07T10:52:33.564Z,102574.88
2022-08-07T10:57:58.464Z,102573.09
2022-08-07T11:03:12.750Z,102564.13
2022-08-07T11:08:29.070Z,102566.81
2022-08-07T11:14:43.940Z,102554.25
2022-08-07T11:19:08.296Z,102556.00
2022-08-07T11:24:22.976Z,102543.47
2022-08-07T11:29:41.745Z,102531.44
2022-08-07T11:34:52.270Z,102513.38
2022-08-07T11:40:19.279Z,102508.69
2022-08-07T11:45:36.001Z,102507.69
2022-08-07T11:50:58.063Z,102512.00
2022-08-07T11:56:26.965Z,102496.34
2022-08-07T12:01:58.739Z,102504.31
2022-08-07T12:07:20.252Z,102501.75
2022-08-07T12:12:38.837Z,102496.13
2022-08-07T12:17:59.562Z,102502.34
2022-08-07T12:23:21.408Z,102496.34
2022-08-07T12:28:53.080Z,102498.78
2022-08-07T12:34:01.823Z,102491.31
2022-08-07T12:39:09.518Z,102494.34
2022-08-07T12:44:35.095Z,102485.59
2022-08-07T12:49:51.945Z,102482.69
2022-08-07T12:55:05.595Z,102479.78
2022-08-07T13:00:20.850Z,102480.75
2022-08-07T13:06:02.847Z,102468.94
2022-08-07T13:11:25.023Z,102472.72
2022-08-07T13:16:40.821Z,102468.13
2022-08-07T13:21:57.342Z,102472.22
2022-08-07T13:27:12.983Z,102464.81
2022-08-07T13:32:32.568Z,102452.06
2022-08-07T13:37:58.917Z,102443.63
2022-08-07T13:43:11.865Z,102434.47
2022-08-07T13:48:27.902Z,102432.63
2022-08-07T13:53:59.732Z,102430.91
2022-08-07T13:59:05.820Z,102433.25
2022-08-07T14:04:21.254Z,102432.97
2022-08-07T14:10:01.564Z,102431.34
2022-08-07T14:14:57.182Z,102425.94
2022-08-07T14:20:40.525Z,102421.72
2022-08-07T14:25:39.462Z,102418.09
2022-08-07T14:30:50.671Z,102419.34
2022-08-07T14:36:00.842Z,102420.91
2022-08-07T14:41:14.607Z,102425.91
2022-08-07T14:46:30.533Z,102418.63
2022-08-07T14:52:04.843Z,102431.66
2022-08-07T14:57:02.623Z,102413.34
2022-08-07T15:02:31.456Z,102410.75
2022-08-07T15:07:47.555Z,102412.66
2022-08-07T15:12:58.443Z,102419.09
2022-08-07T15:25:03.954Z,102413.81
2022-08-07T15:34:26.117Z,102413.81
2022-08-07T15:39:57.852Z,102409.63
2022-08-07T15:44:57.045Z,102401.56
2022-08-07T15:50:06.743Z,102398.00
2022-08-07T15:55:15.722Z,102394.41
2022-08-07T16:00:31.417Z,102392.59
2022-08-07T16:05:39.477Z,102401.72
2022-08-07T16:10:48.610Z,102392.63
2022-08-07T16:16:03.484Z,102396.19
2022-08-07T16:22:03.080Z,102396.22
2022-08-07T16:26:59.266Z,102396.34
2022-08-07T16:32:33.036Z,102392.81
2022-08-07T16:38:09.494Z,102389.16
2022-08-07T16:44:03.953Z,102385.47
2022-08-07T16:50:26.731Z,102384.34
2022-08-07T16:55:08.110Z,102381.66
2022-08-07T17:00:29.423Z,102383.78
2022-08-07T17:06:19.669Z,102391.13
2022-08-07T17:11:14.374Z,102390.19
2022-08-07T17:16:25.008Z,102390.19
2022-08-07T17:21:51.255Z,102388.41
2022-08-07T17:27:00.076Z,102374.97
2022-08-07T17:32:30.618Z,102385.66
2022-08-07T17:38:08.423Z,102388.34
2022-08-07T17:43:20.012Z,102391.84
2022-08-07T17:48:56.897Z,102392.63
2022-08-07T17:54:11.504Z,102385.44
2022-08-07T17:59:23.706Z,102403.25
2022-08-07T18:04:34.423Z,102396.78
2022-08-07T18:09:48.415Z,102399.38
2022-08-07T18:15:12.481Z,102399.28
2022-08-07T18:21:11.607Z,102408.09
2022-08-07T18:26:00.925Z,102406.22
2022-08-07T18:31:18.662Z,102414.09
2022-08-07T18:36:39.769Z,102413.91
2022-08-07T18:41:56.172Z,102413.59
2022-08-07T18:47:20.904Z,102408.00
2022-08-07T18:53:01.628Z,102418.38
2022-08-07T18:58:36.779Z,102427.03
2022-08-07T19:03:49.702Z,102432.22
2022-08-07T19:09:55.716Z,102429.97
2022-08-07T19:14:51.035Z,102434.84
2022-08-07T19:20:04.472Z,102434.59
2022-08-07T19:26:22.649Z,102441.41
2022-08-07T19:31:04.538Z,102447.44
2022-08-07T19:36:05.234Z,102454.31
2022-08-07T19:41:15.010Z,102459.34
2022-08-07T19:46:26.507Z,102466.22
2022-08-07T19:51:52.927Z,102464.00
2022-08-07T19:58:02.350Z,102465.69
2022-08-07T20:02:31.160Z,102473.31
2022-08-07T20:07:47.201Z,102479.38
2022-08-07T20:12:56.428Z,102477.38
2022-08-07T20:18:04.261Z,102476.06
2022-08-07T20:23:23.063Z,102482.13
2022-08-07T20:28:37.074Z,102495.28
2022-08-07T20:33:43.724Z,102495.22
2022-08-07T20:39:00.283Z,102497.63
2022-08-07T20:44:06.302Z,102499.09
2022-08-07T20:49:58.517Z,102491.78
2022-08-07T20:54:41.783Z,102487.94
2022-08-07T21:00:09.208Z,102493.97
2022-08-07T21:05:17.113Z,102496.44
2022-08-07T21:10:41.208Z,102497.19
2022-08-07T21:16:00.466Z,102492.50
2022-08-07T21:21:05.596Z,102495.84
2022-08-07T21:26:22.833Z,102499.94
2022-08-07T21:32:42.439Z,102489.97
2022-08-07T21:37:04.025Z,102495.97
2022-08-07T21:47:50.489Z,102484.94
2022-08-07T21:53:03.553Z,102498.88
2022-08-07T21:58:32.436Z,102503.19
2022-08-07T22:03:44.503Z,102497.59
2022-08-07T22:08:55.773Z,102510.53
2022-08-07T22:14:05.175Z,102513.09
2022-08-07T22:19:30.118Z,102509.28
2022-08-07T22:24:39.022Z,102518.75
2022-08-07T22:29:49.898Z,102523.88
2022-08-07T22:34:57.767Z,102526.41
2022-08-07T22:40:12.179Z,102525.34
2022-08-07T22:46:21.748Z,102525.25
2022-08-07T22:51:08.350Z,102538.44
2022-08-07T22:56:20.224Z,102532.91
2022-08-07T23:01:50.728Z,102538.97
2022-08-07T23:07:25.922Z,102536.88
2022-08-07T23:12:54.923Z,102531.47
2022-08-07T23:18:12.742Z,102529.38
2022-08-07T23:24:05.085Z,102525.75
2022-08-07T23:30:38.838Z,102528.16
2022-08-07T23:35:37.610Z,102533.47
2022-08-07T23:40:49.387Z,102532.41
2022-08-07T23:46:10.916Z,102538.56
2022-08-07T23:52:59.615Z,102534.88
2022-08-07T23:56:53.432Z,102536.75
